sensor_id;sensor_type;location;lat;lon;timestamp;P1;durP1;ratioP1;P2;durP2;ratioP2
72413;SDS011;60995;52.154;4.498;2022-08-02T00:01:57;8.13;;;2.50;;
72413;SDS011;60995;52.154;4.498;2022-08-02T00:04:14;8.55;;;2.25;;
72413;SDS011;60995;52.154;4.498;2022-08-02T00:06:30;10.20;;;2.35;;
72413;SDS011;60995;52.154;4.498;2022-08-02T00:08:47;7.63;;;2.15;;
72413;SDS011;60995;52.154;4.498;2022-08-02T00:11:03;7.65;;;2.28;;
72413;SDS011;60995;52.154;4.498;2022-08-02T00:13:20;12.68;;;2.60;;
72413;SDS011;60995;52.154;4.498;2022-08-02T00:15:36;10.95;;;2.20;;
72413;SDS011;60995;52.154;4.498;2022-08-02T00:17:52;7.28;;;2.25;;
72413;SDS011;60995;52.154;4.498;2022-08-02T00:20:09;9.13;;;2.30;;
72413;SDS011;60995;52.154;4.498;2022-08-02T00:22:27;8.82;;;2.35;;
72413;SDS011;60995;52.154;4.498;2022-08-02T00:24:43;8.90;;;2.47;;
72413;SDS011;60995;52.154;4.498;2022-08-02T00:26:59;8.43;;;2.60;;
72413;SDS011;60995;52.154;4.498;2022-08-02T00:29:18;7.97;;;2.00;;
72413;SDS011;60995;52.154;4.498;2022-08-02T00:31:34;10.32;;;2.47;;
72413;SDS011;60995;52.154;4.498;2022-08-02T00:33:51;9.20;;;2.20;;
72413;SDS011;60995;52.154;4.498;2022-08-02T00:36:07;10.75;;;2.40;;
72413;SDS011;60995;52.154;4.498;2022-08-02T00:38:24;7.88;;;1.90;;
72413;SDS011;60995;52.154;4.498;2022-08-02T00:40:40;6.82;;;2.00;;
72413;SDS011;60995;52.154;4.498;2022-08-02T00:43:03;7.20;;;2.40;;
72413;SDS011;60995;52.154;4.498;2022-08-02T00:45:25;6.70;;;2.17;;
72413;SDS011;60995;52.154;4.498;2022-08-02T00:47:43;4.32;;;1.70;;
72413;SDS011;60995;52.154;4.498;2022-08-02T00:50:00;5.57;;;1.83;;
72413;SDS011;60995;52.154;4.498;2022-08-02T00:52:16;11.07;;;1.90;;
72413;SDS011;60995;52.154;4.498;2022-08-02T00:54:33;6.25;;;1.80;;
72413;SDS011;60995;52.154;4.498;2022-08-02T00:56:49;8.35;;;1.90;;
72413;SDS011;60995;52.154;4.498;2022-08-02T00:59:05;3.88;;;1.50;;
72413;SDS011;60995;52.154;4.498;2022-08-02T01:01:21;7.28;;;1.70;;
72413;SDS011;60995;52.154;4.498;2022-08-02T01:03:53;8.30;;;1.50;;
72413;SDS011;60995;52.154;4.498;2022-08-02T01:06:09;6.40;;;1.60;;
72413;SDS011;60995;52.154;4.498;2022-08-02T01:08:25;3.58;;;1.48;;
72413;SDS011;60995;52.154;4.498;2022-08-02T01:10:42;9.00;;;1.60;;
72413;SDS011;60995;52.154;4.498;2022-08-02T01:12:58;6.90;;;1.60;;
72413;SDS011;60995;52.154;4.498;2022-08-02T01:15:15;6.25;;;1.55;;
72413;SDS011;60995;52.154;4.498;2022-08-02T01:20:11;6.38;;;1.38;;
72413;SDS011;60995;52.154;4.498;2022-08-02T01:33:42;6.15;;;1.50;;
72413;SDS011;60995;52.154;4.498;2022-08-02T01:36:07;3.55;;;1.50;;
72413;SDS011;60995;52.154;4.498;2022-08-02T01:38:32;4.90;;;1.50;;
72413;SDS011;60995;52.154;4.498;2022-08-02T01:40:54;7.70;;;1.67;;
72413;SDS011;60995;52.154;4.498;2022-08-02T01:43:16;4.30;;;1.60;;
72413;SDS011;60995;52.154;4.498;2022-08-02T01:45:38;6.43;;;1.48;;
72413;SDS011;60995;52.154;4.498;2022-08-02T01:47:57;5.53;;;1.63;;
72413;SDS011;60995;52.154;4.498;2022-08-02T01:50:16;6.07;;;1.48;;
72413;SDS011;60995;52.154;4.498;2022-08-02T01:52:46;8.55;;;2.05;;
72413;SDS011;60995;52.154;4.498;2022-08-02T01:57:29;7.13;;;1.83;;
72413;SDS011;60995;52.154;4.498;2022-08-02T01:59:55;8.55;;;2.03;;
72413;SDS011;60995;52.154;4.498;2022-08-02T02:02:15;8.27;;;2.00;;
72413;SDS011;60995;52.154;4.498;2022-08-02T02:04:34;7.88;;;2.10;;
72413;SDS011;60995;52.154;4.498;2022-08-02T02:06:53;8.40;;;2.03;;
72413;SDS011;60995;52.154;4.498;2022-08-02T02:09:13;5.50;;;1.75;;
72413;SDS011;60995;52.154;4.498;2022-08-02T02:11:31;5.85;;;1.80;;
72413;SDS011;60995;52.154;4.498;2022-08-02T02:13:50;7.57;;;1.70;;
72413;SDS011;60995;52.154;4.498;2022-08-02T02:16:08;8.77;;;1.70;;
72413;SDS011;60995;52.154;4.498;2022-08-02T02:18:28;7.32;;;1.70;;
72413;SDS011;60995;52.154;4.498;2022-08-02T02:20:53;6.20;;;1.90;;
72413;SDS011;60995;52.154;4.498;2022-08-02T02:23:11;7.40;;;2.03;;
72413;SDS011;60995;52.154;4.498;2022-08-02T02:25:28;7.00;;;2.28;;
72413;SDS011;60995;52.154;4.498;2022-08-02T02:27:51;8.05;;;1.92;;
72413;SDS011;60995;52.154;4.498;2022-08-02T02:30:15;7.63;;;2.05;;
72413;SDS011;60995;52.154;4.498;2022-08-02T02:32:32;5.97;;;1.98;;
72413;SDS011;60995;52.154;4.498;2022-08-02T02:34:51;8.35;;;2.50;;
72413;SDS011;60995;52.154;4.498;2022-08-02T02:37:20;7.30;;;2.08;;
72413;SDS011;60995;52.154;4.498;2022-08-02T02:39:39;8.55;;;2.22;;
72413;SDS011;60995;52.154;4.498;2022-08-02T02:42:01;5.38;;;1.95;;
72413;SDS011;60995;52.154;4.498;2022-08-02T02:44:22;7.70;;;2.42;;
72413;SDS011;60995;52.154;4.498;2022-08-02T02:46:42;10.02;;;2.50;;
72413;SDS011;60995;52.154;4.498;2022-08-02T02:49:01;8.45;;;2.35;;
72413;SDS011;60995;52.154;4.498;2022-08-02T02:51:18;6.97;;;2.40;;
72413;SDS011;60995;52.154;4.498;2022-08-02T02:53:37;8.23;;;2.70;;
72413;SDS011;60995;52.154;4.498;2022-08-02T02:55:57;10.25;;;2.88;;
72413;SDS011;60995;52.154;4.498;2022-08-02T02:58:15;5.75;;;2.38;;
72413;SDS011;60995;52.154;4.498;2022-08-02T03:00:32;10.57;;;2.60;;
72413;SDS011;60995;52.154;4.498;2022-08-02T03:03:07;7.35;;;2.70;;
72413;SDS011;60995;52.154;4.498;2022-08-02T03:05:25;6.63;;;2.35;;
72413;SDS011;60995;52.154;4.498;2022-08-02T03:07:42;8.57;;;2.90;;
72413;SDS011;60995;52.154;4.498;2022-08-02T03:09:59;11.25;;;3.15;;
72413;SDS011;60995;52.154;4.498;2022-08-02T03:12:18;8.05;;;2.50;;
72413;SDS011;60995;52.154;4.498;2022-08-02T03:14:38;8.70;;;2.72;;
72413;SDS011;60995;52.154;4.498;2022-08-02T03:16:58;8.95;;;2.90;;
72413;SDS011;60995;52.154;4.498;2022-08-02T03:19:15;6.43;;;2.58;;
72413;SDS011;60995;52.154;4.498;2022-08-02T03:21:32;5.68;;;2.28;;
72413;SDS011;60995;52.154;4.498;2022-08-02T03:23:49;7.38;;;2.65;;
72413;SDS011;60995;52.154;4.498;2022-08-02T03:26:06;9.05;;;3.10;;
72413;SDS011;60995;52.154;4.498;2022-08-02T03:28:24;6.95;;;2.83;;
72413;SDS011;60995;52.154;4.498;2022-08-02T03:30:40;8.32;;;2.53;;
72413;SDS011;60995;52.154;4.498;2022-08-02T03:32:56;8.95;;;2.75;;
72413;SDS011;60995;52.154;4.498;2022-08-02T03:35:14;9.95;;;2.90;;
72413;SDS011;60995;52.154;4.498;2022-08-02T03:37:36;8.07;;;2.50;;
72413;SDS011;60995;52.154;4.498;2022-08-02T03:39:53;7.25;;;2.97;;
72413;SDS011;60995;52.154;4.498;2022-08-02T03:42:10;6.15;;;2.20;;
72413;SDS011;60995;52.154;4.498;2022-08-02T03:44:27;5.57;;;2.35;;
72413;SDS011;60995;52.154;4.498;2022-08-02T03:46:46;11.20;;;2.80;;
72413;SDS011;60995;52.154;4.498;2022-08-02T03:49:02;7.32;;;2.13;;
72413;SDS011;60995;52.154;4.498;2022-08-02T03:51:21;6.75;;;2.30;;
72413;SDS011;60995;52.154;4.498;2022-08-02T03:53:38;7.72;;;2.15;;
72413;SDS011;60995;52.154;4.498;2022-08-02T03:55:56;9.45;;;2.22;;
72413;SDS011;60995;52.154;4.498;2022-08-02T03:58:20;6.78;;;2.17;;
72413;SDS011;60995;52.154;4.498;2022-08-02T04:00:39;6.50;;;1.92;;
72413;SDS011;60995;52.154;4.498;2022-08-02T04:02:55;9.40;;;2.88;;
72413;SDS011;60995;52.154;4.498;2022-08-02T04:05:11;5.90;;;2.05;;
72413;SDS011;60995;52.154;4.498;2022-08-02T04:07:28;6.57;;;1.65;;
72413;SDS011;60995;52.154;4.498;2022-08-02T04:09:47;7.25;;;2.05;;
72413;SDS011;60995;52.154;4.498;2022-08-02T04:12:06;8.57;;;2.30;;
72413;SDS011;60995;52.154;4.498;2022-08-02T04:14:22;5.25;;;1.92;;
72413;SDS011;60995;52.154;4.498;2022-08-02T04:16:41;8.75;;;2.30;;
72413;SDS011;60995;52.154;4.498;2022-08-02T04:19:06;7.47;;;1.95;;
72413;SDS011;60995;52.154;4.498;2022-08-02T04:21:30;7.57;;;2.20;;
72413;SDS011;60995;52.154;4.498;2022-08-02T04:23:51;8.63;;;2.07;;
72413;SDS011;60995;52.154;4.498;2022-08-02T04:26:09;7.20;;;2.17;;
72413;SDS011;60995;52.154;4.498;2022-08-02T04:28:37;9.10;;;2.30;;
72413;SDS011;60995;52.154;4.498;2022-08-02T04:30:58;7.07;;;2.35;;
72413;SDS011;60995;52.154;4.498;2022-08-02T04:33:16;6.32;;;2.00;;
72413;SDS011;60995;52.154;4.498;2022-08-02T04:35:36;6.72;;;2.10;;
72413;SDS011;60995;52.154;4.498;2022-08-02T04:37:52;8.32;;;2.30;;
72413;SDS011;60995;52.154;4.498;2022-08-02T04:40:11;7.63;;;2.05;;
72413;SDS011;60995;52.154;4.498;2022-08-02T04:42:30;4.75;;;1.90;;
72413;SDS011;60995;52.154;4.498;2022-08-02T04:44:46;9.80;;;2.30;;
72413;SDS011;60995;52.154;4.498;2022-08-02T04:47:02;11.07;;;2.53;;
72413;SDS011;60995;52.154;4.498;2022-08-02T04:49:20;7.10;;;2.45;;
72413;SDS011;60995;52.154;4.498;2022-08-02T04:51:38;8.45;;;2.05;;
72413;SDS011;60995;52.154;4.498;2022-08-02T04:53:57;7.32;;;2.35;;
72413;SDS011;60995;52.154;4.498;2022-08-02T04:56:14;6.50;;;2.17;;
72413;SDS011;60995;52.154;4.498;2022-08-02T04:58:30;6.43;;;2.08;;
72413;SDS011;60995;52.154;4.498;2022-08-02T05:00:46;7.95;;;2.00;;
72413;SDS011;60995;52.154;4.498;2022-08-02T05:03:03;5.32;;;2.10;;
72413;SDS011;60995;52.154;4.498;2022-08-02T05:05:19;9.23;;;2.03;;
72413;SDS011;60995;52.154;4.498;2022-08-02T05:07:36;8.93;;;2.30;;
72413;SDS011;60995;52.154;4.498;2022-08-02T05:09:52;9.75;;;2.08;;
72413;SDS011;60995;52.154;4.498;2022-08-02T05:12:09;5.07;;;2.05;;
72413;SDS011;60995;52.154;4.498;2022-08-02T05:14:25;5.22;;;2.08;;
72413;SDS011;60995;52.154;4.498;2022-08-02T05:16:41;5.68;;;2.03;;
72413;SDS011;60995;52.154;4.498;2022-08-02T05:18:58;8.73;;;2.38;;
72413;SDS011;60995;52.154;4.498;2022-08-02T05:21:16;4.93;;;1.65;;
72413;SDS011;60995;52.154;4.498;2022-08-02T05:23:32;5.78;;;1.83;;
72413;SDS011;60995;52.154;4.498;2022-08-02T05:25:51;13.43;;;2.05;;
72413;SDS011;60995;52.154;4.498;2022-08-02T05:28:12;7.45;;;2.10;;
72413;SDS011;60995;52.154;4.498;2022-08-02T05:30:29;9.02;;;2.50;;
72413;SDS011;60995;52.154;4.498;2022-08-02T05:32:46;6.18;;;1.98;;
72413;SDS011;60995;52.154;4.498;2022-08-02T05:35:05;4.53;;;1.90;;
72413;SDS011;60995;52.154;4.498;2022-08-02T05:37:23;6.18;;;2.35;;
72413;SDS011;60995;52.154;4.498;2022-08-02T05:39:40;5.90;;;1.98;;
72413;SDS011;60995;52.154;4.498;2022-08-02T05:41:56;5.85;;;2.15;;
72413;SDS011;60995;52.154;4.498;2022-08-02T05:44:12;6.18;;;2.10;;
72413;SDS011;60995;52.154;4.498;2022-08-02T05:46:28;8.68;;;2.70;;
72413;SDS011;60995;52.154;4.498;2022-08-02T05:48:45;11.65;;;2.65;;
72413;SDS011;60995;52.154;4.498;2022-08-02T05:51:03;10.43;;;2.60;;
72413;SDS011;60995;52.154;4.498;2022-08-02T05:53:32;8.43;;;2.30;;
72413;SDS011;60995;52.154;4.498;2022-08-02T05:56:01;8.73;;;2.25;;
72413;SDS011;60995;52.154;4.498;2022-08-02T05:58:53;11.00;;;2.30;;
72413;SDS011;60995;52.154;4.498;2022-08-02T06:01:17;10.75;;;2.15;;
72413;SDS011;60995;52.154;4.498;2022-08-02T06:03:51;6.95;;;1.67;;
72413;SDS011;60995;52.154;4.498;2022-08-02T06:06:13;5.80;;;2.00;;
72413;SDS011;60995;52.154;4.498;2022-08-02T06:08:38;7.90;;;2.10;;
72413;SDS011;60995;52.154;4.498;2022-08-02T06:11:00;8.05;;;2.00;;
72413;SDS011;60995;52.154;4.498;2022-08-02T06:13:20;7.13;;;2.22;;
72413;SDS011;60995;52.154;4.498;2022-08-02T06:15:37;8.90;;;2.40;;
72413;SDS011;60995;52.154;4.498;2022-08-02T06:17:57;7.65;;;2.28;;
72413;SDS011;60995;52.154;4.498;2022-08-02T06:20:16;6.68;;;2.30;;
72413;SDS011;60995;52.154;4.498;2022-08-02T06:22:35;8.00;;;2.28;;
72413;SDS011;60995;52.154;4.498;2022-08-02T06:24:58;5.68;;;2.33;;
72413;SDS011;60995;52.154;4.498;2022-08-02T06:27:17;7.18;;;2.53;;
72413;SDS011;60995;52.154;4.498;2022-08-02T06:29:35;10.10;;;2.90;;
72413;SDS011;60995;52.154;4.498;2022-08-02T06:31:56;7.93;;;2.97;;
72413;SDS011;60995;52.154;4.498;2022-08-02T06:34:13;8.30;;;3.42;;
72413;SDS011;60995;52.154;4.498;2022-08-02T06:39:24;8.70;;;3.70;;
72413;SDS011;60995;52.154;4.498;2022-08-02T06:41:47;10.18;;;4.32;;
72413;SDS011;60995;52.154;4.498;2022-08-02T06:44:07;10.13;;;4.50;;
72413;SDS011;60995;52.154;4.498;2022-08-02T06:46:24;11.82;;;5.45;;
72413;SDS011;60995;52.154;4.498;2022-08-02T06:48:41;15.57;;;5.60;;
72413;SDS011;60995;52.154;4.498;2022-08-02T06:50:57;11.00;;;4.78;;
72413;SDS011;60995;52.154;4.498;2022-08-02T06:53:14;11.55;;;5.85;;
72413;SDS011;60995;52.154;4.498;2022-08-02T06:55:30;13.65;;;7.03;;
72413;SDS011;60995;52.154;4.498;2022-08-02T06:57:47;17.23;;;7.03;;
72413;SDS011;60995;52.154;4.498;2022-08-02T07:00:06;14.00;;;7.53;;
72413;SDS011;60995;52.154;4.498;2022-08-02T07:02:29;15.45;;;7.75;;
72413;SDS011;60995;52.154;4.498;2022-08-02T07:04:46;15.65;;;7.93;;
72413;SDS011;60995;52.154;4.498;2022-08-02T07:07:03;17.08;;;8.18;;
72413;SDS011;60995;52.154;4.498;2022-08-02T07:09:19;16.38;;;7.97;;
72413;SDS011;60995;52.154;4.498;2022-08-02T07:11:36;17.55;;;9.18;;
72413;SDS011;60995;52.154;4.498;2022-08-02T07:13:52;15.65;;;10.23;;
72413;SDS011;60995;52.154;4.498;2022-08-02T07:16:08;17.25;;;10.23;;
72413;SDS011;60995;52.154;4.498;2022-08-02T07:18:25;19.00;;;10.65;;
72413;SDS011;60995;52.154;4.498;2022-08-02T07:24:12;22.95;;;11.52;;
72413;SDS011;60995;52.154;4.498;2022-08-02T07:26:29;19.02;;;11.32;;
72413;SDS011;60995;52.154;4.498;2022-08-02T07:28:45;19.50;;;11.30;;
72413;SDS011;60995;52.154;4.498;2022-08-02T07:31:04;20.95;;;10.98;;
72413;SDS011;60995;52.154;4.498;2022-08-02T07:33:21;18.73;;;10.27;;
72413;SDS011;60995;52.154;4.498;2022-08-02T07:35:37;21.55;;;11.48;;
72413;SDS011;60995;52.154;4.498;2022-08-02T07:37:53;19.58;;;11.18;;
72413;SDS011;60995;52.154;4.498;2022-08-02T07:40:11;21.98;;;11.50;;
72413;SDS011;60995;52.154;4.498;2022-08-02T07:42:31;19.52;;;10.95;;
72413;SDS011;60995;52.154;4.498;2022-08-02T07:44:48;19.75;;;12.80;;
72413;SDS011;60995;52.154;4.498;2022-08-02T07:47:05;19.42;;;13.65;;
72413;SDS011;60995;52.154;4.498;2022-08-02T07:49:21;17.52;;;12.52;;
72413;SDS011;60995;52.154;4.498;2022-08-02T07:51:37;17.42;;;12.20;;
72413;SDS011;60995;52.154;4.498;2022-08-02T07:53:54;20.05;;;13.65;;
72413;SDS011;60995;52.154;4.498;2022-08-02T07:56:11;17.88;;;12.15;;
72413;SDS011;60995;52.154;4.498;2022-08-02T07:58:27;14.77;;;10.52;;
72413;SDS011;60995;52.154;4.498;2022-08-02T08:00:44;17.58;;;11.68;;
72413;SDS011;60995;52.154;4.498;2022-08-02T08:03:00;15.93;;;10.90;;
72413;SDS011;60995;52.154;4.498;2022-08-02T08:05:16;18.00;;;11.80;;
72413;SDS011;60995;52.154;4.498;2022-08-02T08:07:33;18.92;;;11.00;;
72413;SDS011;60995;52.154;4.498;2022-08-02T08:09:50;16.27;;;9.57;;
72413;SDS011;60995;52.154;4.498;2022-08-02T08:12:07;15.75;;;9.85;;
72413;SDS011;60995;52.154;4.498;2022-08-02T08:14:24;15.63;;;9.30;;
72413;SDS011;60995;52.154;4.498;2022-08-02T08:16:40;14.20;;;8.32;;
72413;SDS011;60995;52.154;4.498;2022-08-02T08:18:57;15.95;;;8.73;;
72413;SDS011;60995;52.154;4.498;2022-08-02T08:21:13;14.57;;;8.48;;
72413;SDS011;60995;52.154;4.498;2022-08-02T08:23:30;13.10;;;8.10;;
72413;SDS011;60995;52.154;4.498;2022-08-02T08:25:46;13.90;;;8.35;;
72413;SDS011;60995;52.154;4.498;2022-08-02T08:28:03;15.15;;;8.60;;
72413;SDS011;60995;52.154;4.498;2022-08-02T08:30:20;13.30;;;8.18;;
72413;SDS011;60995;52.154;4.498;2022-08-02T08:32:37;15.05;;;7.88;;
72413;SDS011;60995;52.154;4.498;2022-08-02T08:34:53;11.77;;;7.13;;
72413;SDS011;60995;52.154;4.498;2022-08-02T08:37:09;14.45;;;7.75;;
72413;SDS011;60995;52.154;4.498;2022-08-02T08:39:26;12.95;;;7.28;;
72413;SDS011;60995;52.154;4.498;2022-08-02T08:41:42;14.50;;;7.63;;
72413;SDS011;60995;52.154;4.498;2022-08-02T08:43:59;15.70;;;8.43;;
72413;SDS011;60995;52.154;4.498;2022-08-02T08:46:23;14.68;;;7.47;;
72413;SDS011;60995;52.154;4.498;2022-08-02T08:48:44;12.65;;;7.35;;
72413;SDS011;60995;52.154;4.498;2022-08-02T08:51:09;13.73;;;7.13;;
72413;SDS011;60995;52.154;4.498;2022-08-02T08:53:31;12.65;;;7.65;;
72413;SDS011;60995;52.154;4.498;2022-08-02T08:55:56;14.88;;;8.10;;
72413;SDS011;60995;52.154;4.498;2022-08-02T08:58:15;14.73;;;8.45;;
72413;SDS011;60995;52.154;4.498;2022-08-02T09:00:32;13.40;;;7.15;;
72413;SDS011;60995;52.154;4.498;2022-08-02T09:02:50;15.48;;;8.30;;
72413;SDS011;60995;52.154;4.498;2022-08-02T09:05:11;14.95;;;7.85;;
72413;SDS011;60995;52.154;4.498;2022-08-02T09:07:32;13.13;;;7.22;;
72413;SDS011;60995;52.154;4.498;2022-08-02T09:09:48;17.08;;;8.63;;
72413;SDS011;60995;52.154;4.498;2022-08-02T09:12:17;17.98;;;8.15;;
72413;SDS011;60995;52.154;4.498;2022-08-02T09:14:36;18.00;;;9.30;;
72413;SDS011;60995;52.154;4.498;2022-08-02T09:16:53;17.00;;;9.55;;
72413;SDS011;60995;52.154;4.498;2022-08-02T09:19:24;14.48;;;8.70;;
72413;SDS011;60995;52.154;4.498;2022-08-02T09:21:41;14.13;;;8.23;;
72413;SDS011;60995;52.154;4.498;2022-08-02T09:23:58;13.55;;;7.78;;
72413;SDS011;60995;52.154;4.498;2022-08-02T09:26:18;15.95;;;8.10;;
72413;SDS011;60995;52.154;4.498;2022-08-02T09:28:39;15.60;;;7.53;;
72413;SDS011;60995;52.154;4.498;2022-08-02T09:31:17;11.27;;;6.35;;
72413;SDS011;60995;52.154;4.498;2022-08-02T09:33:56;12.70;;;7.00;;
72413;SDS011;60995;52.154;4.498;2022-08-02T09:36:18;13.05;;;7.40;;
72413;SDS011;60995;52.154;4.498;2022-08-02T09:38:35;12.93;;;6.45;;
72413;SDS011;60995;52.154;4.498;2022-08-02T09:40:52;11.80;;;5.95;;
72413;SDS011;60995;52.154;4.498;2022-08-02T09:43:08;11.93;;;5.93;;
72413;SDS011;60995;52.154;4.498;2022-08-02T09:45:28;11.23;;;5.05;;
72413;SDS011;60995;52.154;4.498;2022-08-02T09:47:52;13.10;;;7.03;;
72413;SDS011;60995;52.154;4.498;2022-08-02T09:50:08;16.83;;;10.77;;
72413;SDS011;60995;52.154;4.498;2022-08-02T09:52:26;14.20;;;10.15;;
72413;SDS011;60995;52.154;4.498;2022-08-02T09:54:44;11.55;;;7.40;;
72413;SDS011;60995;52.154;4.498;2022-08-02T09:57:04;10.70;;;5.28;;
72413;SDS011;60995;52.154;4.498;2022-08-02T09:59:22;10.30;;;5.10;;
72413;SDS011;60995;52.154;4.498;2022-08-02T10:01:41;11.38;;;4.78;;
72413;SDS011;60995;52.154;4.498;2022-08-02T10:04:03;11.32;;;5.05;;
72413;SDS011;60995;52.154;4.498;2022-08-02T10:06:21;8.88;;;4.75;;
72413;SDS011;60995;52.154;4.498;2022-08-02T10:08:38;11.32;;;6.22;;
72413;SDS011;60995;52.154;4.498;2022-08-02T10:10:55;12.57;;;7.65;;
72413;SDS011;60995;52.154;4.498;2022-08-02T10:13:17;12.55;;;6.25;;
72413;SDS011;60995;52.154;4.498;2022-08-02T10:15:34;12.68;;;5.13;;
72413;SDS011;60995;52.154;4.498;2022-08-02T10:17:54;9.25;;;5.00;;
72413;SDS011;60995;52.154;4.498;2022-08-02T10:20:11;10.93;;;5.55;;
72413;SDS011;60995;52.154;4.498;2022-08-02T10:22:28;11.57;;;4.75;;
72413;SDS011;60995;52.154;4.498;2022-08-02T10:24:45;12.25;;;5.22;;
72413;SDS011;60995;52.154;4.498;2022-08-02T10:27:02;10.63;;;4.60;;
72413;SDS011;60995;52.154;4.498;2022-08-02T10:29:34;7.80;;;4.28;;
72413;SDS011;60995;52.154;4.498;2022-08-02T10:31:55;9.63;;;4.28;;
72413;SDS011;60995;52.154;4.498;2022-08-02T10:34:17;9.68;;;4.20;;
72413;SDS011;60995;52.154;4.498;2022-08-02T10:36:51;11.18;;;3.60;;
72413;SDS011;60995;52.154;4.498;2022-08-02T10:39:09;8.80;;;3.60;;
72413;SDS011;60995;52.154;4.498;2022-08-02T10:41:43;8.90;;;3.70;;
72413;SDS011;60995;52.154;4.498;2022-08-02T10:44:05;9.23;;;4.35;;
72413;SDS011;60995;52.154;4.498;2022-08-02T10:46:32;11.00;;;4.03;;
72413;SDS011;60995;52.154;4.498;2022-08-02T10:52:17;9.80;;;4.13;;
72413;SDS011;60995;52.154;4.498;2022-08-02T10:54:16;16.30;;;7.65;;
72413;SDS011;60995;52.154;4.498;2022-08-02T10:56:44;10.57;;;4.20;;
72413;SDS011;60995;52.154;4.498;2022-08-02T11:01:49;11.95;;;3.92;;
72413;SDS011;60995;52.154;4.498;2022-08-02T11:04:06;8.77;;;3.83;;
72413;SDS011;60995;52.154;4.498;2022-08-02T11:06:23;10.32;;;3.88;;
72413;SDS011;60995;52.154;4.498;2022-08-02T11:08:39;12.52;;;5.20;;
72413;SDS011;60995;52.154;4.498;2022-08-02T11:11:00;9.13;;;3.58;;
72413;SDS011;60995;52.154;4.498;2022-08-02T11:13:31;8.43;;;3.80;;
72413;SDS011;60995;52.154;4.498;2022-08-02T11:16:15;8.43;;;3.40;;
72413;SDS011;60995;52.154;4.498;2022-08-02T11:23:45;11.98;;;3.40;;
72413;SDS011;60995;52.154;4.498;2022-08-02T11:26:04;9.52;;;3.30;;
72413;SDS011;60995;52.154;4.498;2022-08-02T11:28:47;8.23;;;3.65;;
72413;SDS011;60995;52.154;4.498;2022-08-02T11:31:05;7.43;;;2.90;;
72413;SDS011;60995;52.154;4.498;2022-08-02T11:33:28;9.40;;;3.10;;
72413;SDS011;60995;52.154;4.498;2022-08-02T11:35:46;7.72;;;2.53;;
72413;SDS011;60995;52.154;4.498;2022-08-02T11:38:15;7.63;;;2.30;;
72413;SDS011;60995;52.154;4.498;2022-08-02T11:40:37;7.43;;;2.20;;
72413;SDS011;60995;52.154;4.498;2022-08-02T11:42:54;6.00;;;1.90;;
72413;SDS011;60995;52.154;4.498;2022-08-02T11:45:11;5.55;;;2.30;;
72413;SDS011;60995;52.154;4.498;2022-08-02T11:47:31;6.28;;;2.10;;
72413;SDS011;60995;52.154;4.498;2022-08-02T11:49:47;9.18;;;2.25;;
72413;SDS011;60995;52.154;4.498;2022-08-02T11:52:04;6.28;;;2.20;;
72413;SDS011;60995;52.154;4.498;2022-08-02T11:54:26;10.25;;;2.58;;
72413;SDS011;60995;52.154;4.498;2022-08-02T11:56:45;7.63;;;2.20;;
72413;SDS011;60995;52.154;4.498;2022-08-02T11:59:06;10.43;;;2.30;;
72413;SDS011;60995;52.154;4.498;2022-08-02T12:01:25;8.32;;;2.10;;
72413;SDS011;60995;52.154;4.498;2022-08-02T12:03:41;6.15;;;2.08;;
72413;SDS011;60995;52.154;4.498;2022-08-02T12:05:57;7.30;;;2.50;;
72413;SDS011;60995;52.154;4.498;2022-08-02T12:08:14;8.25;;;2.78;;
72413;SDS011;60995;52.154;4.498;2022-08-02T12:10:30;7.20;;;2.40;;
72413;SDS011;60995;52.154;4.498;2022-08-02T12:12:57;9.10;;;3.03;;
72413;SDS011;60995;52.154;4.498;2022-08-02T12:15:27;7.25;;;2.40;;
72413;SDS011;60995;52.154;4.498;2022-08-02T12:20:49;9.07;;;2.47;;
72413;SDS011;60995;52.154;4.498;2022-08-02T12:23:05;8.20;;;2.20;;
72413;SDS011;60995;52.154;4.498;2022-08-02T12:25:21;7.60;;;2.40;;
72413;SDS011;60995;52.154;4.498;2022-08-02T12:27:38;7.95;;;2.90;;
72413;SDS011;60995;52.154;4.498;2022-08-02T12:30:31;6.95;;;2.40;;
72413;SDS011;60995;52.154;4.498;2022-08-02T12:32:41;7.55;;;2.30;;
72413;SDS011;60995;52.154;4.498;2022-08-02T12:35:00;9.38;;;1.92;;
72413;SDS011;60995;52.154;4.498;2022-08-02T12:37:30;6.30;;;1.80;;
72413;SDS011;60995;52.154;4.498;2022-08-02T12:39:47;6.55;;;1.83;;
72413;SDS011;60995;52.154;4.498;2022-08-02T12:42:06;5.72;;;1.73;;
72413;SDS011;60995;52.154;4.498;2022-08-02T12:44:25;6.25;;;1.60;;
72413;SDS011;60995;52.154;4.498;2022-08-02T12:46:42;6.82;;;1.75;;
72413;SDS011;60995;52.154;4.498;2022-08-02T12:48:58;7.07;;;1.60;;
72413;SDS011;60995;52.154;4.498;2022-08-02T12:53:52;6.00;;;1.45;;
72413;SDS011;60995;52.154;4.498;2022-08-02T12:56:29;7.15;;;2.08;;
72413;SDS011;60995;52.154;4.498;2022-08-02T12:58:51;11.15;;;2.13;;
72413;SDS011;60995;52.154;4.498;2022-08-02T13:01:07;10.60;;;2.80;;
72413;SDS011;60995;52.154;4.498;2022-08-02T13:03:26;6.25;;;1.55;;
72413;SDS011;60995;52.154;4.498;2022-08-02T13:05:43;5.78;;;1.65;;
72413;SDS011;60995;52.154;4.498;2022-08-02T13:08:00;11.02;;;1.90;;
72413;SDS011;60995;52.154;4.498;2022-08-02T13:10:19;7.75;;;1.73;;
72413;SDS011;60995;52.154;4.498;2022-08-02T13:12:36;13.25;;;2.83;;
72413;SDS011;60995;52.154;4.498;2022-08-02T13:14:56;16.40;;;2.42;;
72413;SDS011;60995;52.154;4.498;2022-08-02T13:17:15;17.13;;;8.15;;
72413;SDS011;60995;52.154;4.498;2022-08-02T13:19:33;14.10;;;2.05;;
72413;SDS011;60995;52.154;4.498;2022-08-02T13:21:57;9.43;;;2.28;;
72413;SDS011;60995;52.154;4.498;2022-08-02T13:24:18;11.10;;;2.85;;
72413;SDS011;60995;52.154;4.498;2022-08-02T13:26:39;12.50;;;2.30;;
72413;SDS011;60995;52.154;4.498;2022-08-02T13:28:59;12.48;;;2.67;;
72413;SDS011;60995;52.154;4.498;2022-08-02T13:31:21;14.75;;;2.92;;
72413;SDS011;60995;52.154;4.498;2022-08-02T13:33:38;11.98;;;2.75;;
72413;SDS011;60995;52.154;4.498;2022-08-02T13:35:57;13.95;;;2.20;;
72413;SDS011;60995;52.154;4.498;2022-08-02T13:38:16;10.63;;;1.92;;
72413;SDS011;60995;52.154;4.498;2022-08-02T13:40:35;9.95;;;2.58;;
72413;SDS011;60995;52.154;4.498;2022-08-02T13:43:12;13.63;;;2.40;;
72413;SDS011;60995;52.154;4.498;2022-08-02T13:45:39;13.48;;;2.45;;
72413;SDS011;60995;52.154;4.498;2022-08-02T13:47:59;9.32;;;2.55;;
72413;SDS011;60995;52.154;4.498;2022-08-02T13:50:18;9.57;;;2.13;;
72413;SDS011;60995;52.154;4.498;2022-08-02T13:52:39;11.52;;;2.42;;
72413;SDS011;60995;52.154;4.498;2022-08-02T13:54:56;12.68;;;2.40;;
72413;SDS011;60995;52.154;4.498;2022-08-02T13:57:12;9.23;;;2.10;;
72413;SDS011;60995;52.154;4.498;2022-08-02T13:59:28;10.65;;;2.33;;
72413;SDS011;60995;52.154;4.498;2022-08-02T14:01:45;9.93;;;2.15;;
72413;SDS011;60995;52.154;4.498;2022-08-02T14:04:01;11.30;;;2.40;;
72413;SDS011;60995;52.154;4.498;2022-08-02T14:06:19;10.57;;;3.55;;
72413;SDS011;60995;52.154;4.498;2022-08-02T14:08:38;10.43;;;2.47;;
72413;SDS011;60995;52.154;4.498;2022-08-02T14:10:55;11.38;;;3.00;;
72413;SDS011;60995;52.154;4.498;2022-08-02T14:13:11;12.48;;;3.28;;
72413;SDS011;60995;52.154;4.498;2022-08-02T14:15:27;11.13;;;3.40;;
72413;SDS011;60995;52.154;4.498;2022-08-02T14:17:44;11.65;;;2.70;;
72413;SDS011;60995;52.154;4.498;2022-08-02T14:22:45;11.95;;;2.83;;
72413;SDS011;60995;52.154;4.498;2022-08-02T14:25:11;11.32;;;2.67;;
72413;SDS011;60995;52.154;4.498;2022-08-02T14:27:33;9.73;;;2.70;;
72413;SDS011;60995;52.154;4.498;2022-08-02T14:33:03;9.52;;;2.90;;
72413;SDS011;60995;52.154;4.498;2022-08-02T14:36:08;10.20;;;2.90;;
72413;SDS011;60995;52.154;4.498;2022-08-02T14:38:33;12.80;;;2.80;;
72413;SDS011;60995;52.154;4.498;2022-08-02T14:41:15;10.43;;;3.00;;